East Bernard, TX (77435)

8:24 PM CDT on May 06, 2015 (GMT -0500)
APRSWXNET | | Change Station
CLOSE
Current Station
Personal Weather Station
Location: Lissie, TX
Elevation: 377 ft
Nearby Weather Stations

Elev 377 ft 29.50 °N, 96.22 °W | Updated 28 minutes ago

Mostly Cloudy
Mostly Cloudy
77 °F
Feels Like 79 °F
N
3
Wind Variable Wind from SSE
Gusts 9.0 mph

Today
High -- | Low -- °F
--% Chance of Precip.
Yesterday
High -- | Low -- °F
Precip. -- in
6:38 AM 8:03 PM
Waning Gibbous, 91% visible
Pressure 29.90 in
Visibility 10.0 miles
Clouds Scattered Clouds 6500 ft
Mostly Cloudy 7500 ft
Heat Index 79 °F
Dew Point 70 °F
Humidity 79%
Rainfall in
Snow Depth Not available.
UV 0 out of 12
Pollen 6.70 out of 12
Air Quality Not available.
Flu Activity Sporadic
METAR KARM 070115Z AUTO 14010KT 10SM SCT065 BKN075 25/22 A2990 RMK AO2 LTG DSNT NW T02450215

More Conditions Fewer Conditions

Pressure 29.90 in
Visibility 10.0 miles
Clouds Scattered Clouds 6500 ft
Mostly Cloudy 7500 ft
Heat Index 79 °F
Dew Point 70 °F
Humidity 79%
Rainfall in
Snow Depth Not available.
UV 0 out of 12
Pollen 6.70 out of 12
Air Quality Not available.
Flu Activity Sporadic
METAR KARM 070115Z AUTO 14010KT 10SM SCT065 BKN075 25/22 A2990 RMK AO2 LTG DSNT NW T02450215

More Conditions Fewer Conditions

10-Day Weather Forecast

Almanac

Astronomy

May. 06, 2015 Rise Set
Actual Time
Civil Twilight
Nautical Twilight
Astronomical Twilight
Moon
Length of Visible Light
Length of Day
Tomorrow will be .
, % of the Moon is Illuminated

Today's Extremes

State Highs State Lows

Community

WunderPhotos

Upload Photos

1,819,058 photos uploaded!

WunderBlogs® & News

Nearby

Air Quality

  Air Quality AQ Index Pollutant
Not available.

Snow Depth

Station Depth Elevation

Earthquake Activity

City Distance Mag. Time & Date
Minimum magnitude displayed is 2.5.

Coastal Water Temperatures

Place Temperature

Stations

Nearby Weather Stations

Station Location Temp. Windchill Dew Point Humidity Wind Precip. Elev Updated Type